Aviation Digital Data Service (ADDS)

Output produced by METARs form (1016 UTC 19 January 2019)
found at http://www.aviationweather.gov/metar/data/
 
FPST 191000Z 14006KT 9999 FEW025 SCT110 30/26 Q1014 NOSIG